Time;durP1;ratioP1;P1;durP2;ratioP2;P2;SDS_P1;SDS_P2;PMS_P1;PMS_P2;Temp;Humidity;BMP_temperature;BMP_pressure;BME280_temperature;BME280_humidity;BME280_pressure;Samples;Min_cycle;Max_cycle;Signal;HPM_P1;HPM_P2
2022/07/07 00:00:30;;;;;;;4.63;2.90;;;17.90;99.90;;;;;;5052808;28;20665;-69
2022/07/07 00:02:57;;;;;;;5.47;2.70;;;17.80;99.90;;;;;;5052494;28;20211;-69
2022/07/07 00:05:24;;;;;;;4.40;2.50;;;17.70;99.90;;;;;;5032791;28;20230;-69
2022/07/07 00:07:51;;;;;;;3.43;2.60;;;17.70;99.90;;;;;;5032198;28;20221;-70
2022/07/07 00:10:20;;;;;;;4.23;2.70;;;17.60;99.90;;;;;;5032808;28;20220;-68
2022/07/07 00:12:47;;;;;;;2.63;1.80;;;17.50;99.90;;;;;;5062531;28;20229;-70
2022/07/07 00:15:14;;;;;;;1.70;1.60;;;17.50;99.90;;;;;;5052000;28;20209;-69
2022/07/07 00:17:41;;;;;;;2.10;1.50;;;17.40;99.90;;;;;;5051957;28;20295;-69
2022/07/07 00:20:09;;;;;;;1.70;1.60;;;17.40;99.90;;;;;;5032197;28;20286;-69
2022/07/07 00:22:35;;;;;;;3.27;1.80;;;17.30;99.90;;;;;;5032415;28;20630;-68
2022/07/07 00:25:03;;;;;;;4.10;1.67;;;17.30;99.90;;;;;;5039223;28;20752;-69
2022/07/07 00:27:31;;;;;;;2.93;1.70;;;17.20;99.90;;;;;;5051987;28;20224;-68
2022/07/07 00:29:58;;;;;;;2.17;1.57;;;17.20;99.90;;;;;;5041946;28;20291;-71
2022/07/07 00:32:25;;;;;;;2.63;1.70;;;17.10;99.90;;;;;;5042165;28;20226;-68
2022/07/07 00:34:51;;;;;;;3.30;1.70;;;17.00;99.90;;;;;;5041760;28;20738;-68
2022/07/07 00:37:18;;;;;;;6.63;1.70;;;16.90;99.90;;;;;;5040017;28;20223;-68
2022/07/07 00:39:45;;;;;;;4.07;1.60;;;16.90;99.90;;;;;;5040622;28;20596;-68
2022/07/07 00:42:15;;;;;;;1.90;1.80;;;16.80;99.90;;;;;;5047218;28;20770;-68
2022/07/07 00:44:44;;;;;;;2.73;2.13;;;16.80;99.90;;;;;;5039521;28;20205;-69
2022/07/07 00:47:12;;;;;;;2.30;1.63;;;16.80;99.90;;;;;;5033915;28;20593;-69
2022/07/07 00:49:40;;;;;;;3.67;1.60;;;16.70;99.90;;;;;;5037161;28;20300;-69
2022/07/07 00:52:08;;;;;;;1.83;1.60;;;16.70;99.90;;;;;;5035296;28;20209;-68
2022/07/07 00:54:35;;;;;;;2.70;2.00;;;16.70;99.90;;;;;;5050901;28;20199;-71
2022/07/07 00:57:04;;;;;;;3.63;1.63;;;16.70;99.90;;;;;;5031098;28;20639;-68
2022/07/07 00:59:31;;;;;;;5.33;1.80;;;16.70;99.90;;;;;;5032075;28;20294;-67
2022/07/07 01:02:00;;;;;;;3.47;1.53;;;16.70;99.90;;;;;;5032034;28;20241;-67
2022/07/07 01:04:27;;;;;;;3.90;1.47;;;16.60;99.90;;;;;;5031909;28;20226;-67
2022/07/07 01:06:54;;;;;;;3.53;1.70;;;16.50;99.90;;;;;;5031463;28;20222;-67
2022/07/07 01:09:22;;;;;;;2.10;1.40;;;16.50;99.90;;;;;;5031115;28;20233;-69
2022/07/07 01:11:53;;;;;;;6.27;1.93;;;16.50;99.90;;;;;;5031683;28;20208;-69
2022/07/07 01:14:20;;;;;;;2.43;1.70;;;16.50;99.90;;;;;;5031730;28;20328;-68
2022/07/07 01:16:48;;;;;;;3.27;1.83;;;16.50;99.90;;;;;;5038298;28;20294;-67
2022/07/07 01:19:17;;;;;;;2.50;1.57;;;16.50;99.90;;;;;;5032416;28;20727;-68
2022/07/07 01:21:53;;;;;;;2.37;1.53;;;16.50;99.90;;;;;;5051850;28;20205;-68
2022/07/07 01:24:22;;;;;;;2.70;1.80;;;16.50;99.90;;;;;;5051453;28;20206;-68
2022/07/07 01:26:49;;;;;;;2.07;1.43;;;16.40;99.90;;;;;;5051455;28;20316;-67
2022/07/07 01:29:16;;;;;;;3.13;1.80;;;16.50;99.90;;;;;;5045771;28;20212;-68
2022/07/07 01:31:43;;;;;;;2.03;1.70;;;16.40;99.90;;;;;;5038146;28;20293;-67
2022/07/07 01:34:10;;;;;;;3.10;1.60;;;16.40;99.90;;;;;;5050332;28;20760;-68
2022/07/07 01:36:37;;;;;;;3.17;1.60;;;16.40;99.90;;;;;;5051333;28;20297;-68
2022/07/07 01:39:04;;;;;;;2.30;1.70;;;16.30;99.90;;;;;;5051326;28;20237;-67
2022/07/07 01:41:32;;;;;;;2.00;1.80;;;16.30;99.90;;;;;;5050045;28;20702;-68
2022/07/07 01:43:59;;;;;;;4.97;1.67;;;16.20;99.90;;;;;;5051284;28;20268;-70
2022/07/07 01:46:26;;;;;;;2.60;1.50;;;16.20;99.90;;;;;;5051003;28;20271;-68
2022/07/07 01:48:53;;;;;;;3.03;1.70;;;16.20;99.90;;;;;;5051668;28;20727;-69
2022/07/07 01:51:20;;;;;;;2.40;1.83;;;16.30;99.90;;;;;;5049226;28;20639;-68
2022/07/07 01:53:47;;;;;;;1.63;1.50;;;16.30;99.90;;;;;;5051451;28;20238;-67
2022/07/07 01:56:13;;;;;;;4.33;1.73;;;16.20;99.90;;;;;;5049935;28;20293;-69
2022/07/07 01:58:42;;;;;;;3.77;1.60;;;16.20;99.90;;;;;;5044900;28;20307;-68
2022/07/07 02:01:09;;;;;;;2.47;1.50;;;16.10;99.90;;;;;;5034967;28;20545;-66
2022/07/07 02:03:35;;;;;;;2.43;1.70;;;16.10;99.90;;;;;;5031519;28;20210;-67
2022/07/07 02:06:02;;;;;;;2.77;1.63;;;16.00;99.90;;;;;;5031567;28;20317;-69
2022/07/07 02:08:29;;;;;;;1.90;1.50;;;16.10;99.90;;;;;;5031563;28;20272;-68
2022/07/07 02:11:15;;;;;;;2.43;1.50;;;16.00;99.90;;;;;;5031071;28;20252;-67
2022/07/07 02:13:44;;;;;;;2.23;1.60;;;16.00;99.90;;;;;;5042187;28;20203;-66
2022/07/07 02:16:12;;;;;;;2.83;1.57;;;16.00;99.90;;;;;;5050981;28;20661;-68
2022/07/07 02:18:41;;;;;;;2.00;1.80;;;15.90;99.90;;;;;;5051233;28;20233;-67
2022/07/07 02:21:09;;;;;;;2.73;1.67;;;15.90;99.90;;;;;;5042665;28;20223;-68
2022/07/07 02:23:37;;;;;;;2.10;1.60;;;15.90;99.90;;;;;;5038237;28;20207;-67
2022/07/07 02:26:05;;;;;;;3.33;1.50;;;15.90;99.90;;;;;;5030554;28;20293;-67
2022/07/07 02:28:32;;;;;;;2.10;1.80;;;15.90;99.90;;;;;;5030954;28;20211;-68
2022/07/07 02:31:01;;;;;;;2.93;1.60;;;15.90;99.90;;;;;;5037756;28;20212;-68
2022/07/07 02:33:28;;;;;;;1.83;1.33;;;15.90;99.90;;;;;;5054474;28;20244;-68
2022/07/07 02:35:55;;;;;;;2.67;1.43;;;15.90;99.90;;;;;;5054607;28;20300;-69
2022/07/07 02:38:22;;;;;;;3.43;1.67;;;15.90;99.90;;;;;;5054478;28;20416;-67
2022/07/07 02:40:50;;;;;;;3.90;1.57;;;15.90;99.90;;;;;;5036378;28;20588;-67
2022/07/07 02:43:18;;;;;;;2.57;1.73;;;15.90;99.90;;;;;;5034147;28;20240;-68
2022/07/07 02:45:46;;;;;;;3.07;1.50;;;15.90;99.90;;;;;;5034391;28;20268;-68
2022/07/07 02:48:15;;;;;;;2.13;1.60;;;16.00;99.90;;;;;;5033821;28;20235;-67
2022/07/07 02:50:43;;;;;;;4.33;1.50;;;16.00;99.90;;;;;;5044798;28;20609;-67
2022/07/07 02:53:10;;;;;;;2.03;1.47;;;16.00;99.90;;;;;;5033552;28;20206;-69
2022/07/07 02:55:38;;;;;;;2.43;1.40;;;16.00;99.90;;;;;;5034203;28;20207;-67
2022/07/07 02:58:07;;;;;;;2.67;1.43;;;16.00;99.90;;;;;;5034185;28;20237;-68
2022/07/07 03:00:34;;;;;;;2.73;1.67;;;16.00;99.90;;;;;;5047748;28;20268;-68
2022/07/07 03:03:02;;;;;;;2.40;1.40;;;16.00;99.90;;;;;;5053790;28;20202;-68
2022/07/07 03:05:30;;;;;;;1.90;1.60;;;16.00;99.90;;;;;;5054150;28;20302;-68
2022/07/07 03:07:58;;;;;;;3.00;1.53;;;16.00;99.90;;;;;;5052226;28;20218;-68
2022/07/07 03:10:25;;;;;;;1.80;1.53;;;16.10;99.90;;;;;;5053692;28;20301;-69
2022/07/07 03:12:52;;;;;;;2.97;1.40;;;16.10;99.90;;;;;;5054008;28;20294;-70
2022/07/07 03:15:19;;;;;;;3.13;1.70;;;16.10;99.90;;;;;;5053654;28;20270;-68
2022/07/07 03:17:47;;;;;;;4.57;1.80;;;16.10;99.90;;;;;;5053094;28;20622;-69
2022/07/07 03:20:15;;;;;;;2.00;1.70;;;16.10;99.90;;;;;;5037075;28;20210;-70
2022/07/07 03:22:44;;;;;;;4.33;1.70;;;16.10;99.90;;;;;;5033892;28;20297;-69
2022/07/07 03:25:12;;;;;;;1.83;1.60;;;16.20;99.90;;;;;;5033842;28;20573;-69
2022/07/07 03:27:39;;;;;;;2.37;1.70;;;16.30;99.90;;;;;;5035734;28;20234;-68
2022/07/07 03:30:08;;;;;;;3.60;1.77;;;16.30;99.90;;;;;;5053143;28;20207;-70
2022/07/07 03:32:35;;;;;;;2.13;1.80;;;16.30;99.90;;;;;;5053431;28;20295;-68
2022/07/07 03:35:02;;;;;;;4.27;1.80;;;16.30;99.90;;;;;;5053237;28;20186;-68
2022/07/07 03:37:32;;;;;;;2.90;1.70;;;16.40;99.90;;;;;;5051994;28;20206;-67
2022/07/07 03:40:01;;;;;;;2.10;1.53;;;16.40;99.90;;;;;;5035202;28;20214;-70
2022/07/07 03:42:28;;;;;;;3.20;1.70;;;16.40;99.90;;;;;;5033501;28;20717;-68
2022/07/07 03:44:55;;;;;;;2.90;1.90;;;16.40;99.90;;;;;;5033382;28;20639;-68
2022/07/07 03:47:21;;;;;;;3.60;1.90;;;16.40;99.90;;;;;;5033210;28;20231;-68
2022/07/07 03:49:48;;;;;;;4.87;1.73;;;16.40;99.90;;;;;;5044173;28;20203;-68
2022/07/07 03:52:16;;;;;;;5.33;1.90;;;16.40;99.90;;;;;;5053250;28;20289;-69
2022/07/07 03:54:43;;;;;;;2.37;1.80;;;16.30;99.90;;;;;;5052934;28;20702;-70
2022/07/07 03:57:11;;;;;;;2.17;1.70;;;16.30;99.90;;;;;;5051764;28;20658;-68
2022/07/07 03:59:38;;;;;;;4.57;1.67;;;16.30;99.90;;;;;;5053171;28;20551;-69
2022/07/07 04:02:06;;;;;;;2.13;1.60;;;16.30;99.90;;;;;;5051028;28;20710;-69
2022/07/07 04:04:32;;;;;;;1.97;1.70;;;16.30;99.90;;;;;;5053092;28;20564;-68
2022/07/07 04:06:59;;;;;;;2.23;1.60;;;16.30;99.90;;;;;;5052493;28;20317;-67
2022/07/07 04:09:26;;;;;;;2.50;1.90;;;16.30;99.90;;;;;;5053036;28;20227;-69
2022/07/07 04:11:53;;;;;;;2.20;1.60;;;16.40;99.90;;;;;;5051604;28;20202;-70
2022/07/07 04:14:22;;;;;;;2.10;1.60;;;16.40;99.90;;;;;;5053018;28;20626;-68
2022/07/07 04:16:48;;;;;;;3.87;1.70;;;16.40;99.90;;;;;;5042207;28;20573;-70
2022/07/07 04:19:15;;;;;;;2.67;1.90;;;16.40;99.90;;;;;;5032970;28;20241;-67
2022/07/07 04:21:42;;;;;;;2.73;2.23;;;16.40;99.90;;;;;;5032300;28;20210;-68
2022/07/07 04:24:10;;;;;;;4.03;1.93;;;16.40;99.90;;;;;;5037851;28;20223;-68
2022/07/07 04:26:37;;;;;;;2.07;1.87;;;16.40;99.90;;;;;;5051535;28;20297;-69
2022/07/07 04:29:04;;;;;;;2.93;1.90;;;16.40;99.90;;;;;;5052501;28;20592;-67
2022/07/07 04:31:32;;;;;;;2.80;1.80;;;16.40;99.90;;;;;;5052421;28;20211;-68
2022/07/07 04:33:59;;;;;;;2.00;1.80;;;16.40;99.90;;;;;;5050683;28;20252;-70
2022/07/07 04:36:26;;;;;;;2.20;1.57;;;16.50;99.90;;;;;;5052628;28;20292;-70
2022/07/07 04:38:53;;;;;;;4.87;1.90;;;16.40;99.90;;;;;;5045943;28;20296;-68
2022/07/07 04:41:20;;;;;;;2.10;1.90;;;16.40;99.90;;;;;;5032041;28;20601;-68
2022/07/07 04:43:47;;;;;;;1.80;1.70;;;16.50;99.90;;;;;;5032172;28;20293;-67
2022/07/07 04:46:14;;;;;;;3.23;2.50;;;16.50;99.90;;;;;;5032320;28;20232;-69
2022/07/07 04:48:42;;;;;;;4.80;2.13;;;16.50;99.90;;;;;;5046951;28;20272;-69
2022/07/07 04:51:09;;;;;;;2.00;1.80;;;16.60;99.90;;;;;;5058686;28;20304;-67
2022/07/07 04:53:36;;;;;;;2.33;2.10;;;16.50;99.90;;;;;;5057065;28;20208;-69
2022/07/07 04:56:03;;;;;;;3.90;2.10;;;16.50;99.90;;;;;;5059324;28;20209;-68
2022/07/07 04:58:29;;;;;;;2.43;1.90;;;16.50;99.90;;;;;;5061951;28;20284;-69
2022/07/07 05:00:56;;;;;;;2.77;1.87;;;16.50;99.90;;;;;;5056963;28;20267;-70
2022/07/07 05:03:23;;;;;;;2.10;1.83;;;16.60;99.90;;;;;;5058165;28;20197;-68
2022/07/07 05:05:51;;;;;;;2.10;1.80;;;16.60;99.90;;;;;;5058370;28;20307;-68
2022/07/07 05:08:18;;;;;;;4.07;2.00;;;16.60;99.90;;;;;;5060010;28;20302;-68
2022/07/07 05:10:45;;;;;;;4.43;1.87;;;16.60;99.90;;;;;;5056434;28;20203;-68
2022/07/07 05:13:12;;;;;;;4.43;1.90;;;16.60;99.90;;;;;;5051980;28;20253;-68
2022/07/07 05:15:39;;;;;;;4.23;2.10;;;16.70;99.90;;;;;;5050604;28;20296;-69
2022/07/07 05:18:06;;;;;;;3.53;2.10;;;16.70;99.90;;;;;;5051441;28;20203;-69
2022/07/07 05:20:33;;;;;;;2.80;2.30;;;16.70;99.90;;;;;;5051799;28;20611;-68
2022/07/07 05:23:01;;;;;;;3.67;2.50;;;16.70;99.90;;;;;;5051734;28;20298;-68
2022/07/07 05:25:28;;;;;;;4.03;2.37;;;16.70;99.90;;;;;;5050977;28;20210;-68
2022/07/07 05:27:55;;;;;;;5.97;3.00;;;16.70;99.90;;;;;;5031364;28;20419;-68
2022/07/07 05:30:22;;;;;;;2.60;2.37;;;16.70;99.90;;;;;;5032058;28;20207;-68
2022/07/07 05:32:49;;;;;;;2.90;2.60;;;16.70;99.90;;;;;;5030314;28;20234;-68
2022/07/07 05:35:17;;;;;;;4.33;3.20;;;16.80;99.90;;;;;;5031799;28;20195;-69
2022/07/07 05:37:44;;;;;;;3.60;3.00;;;16.90;99.90;;;;;;5031363;28;20234;-69
2022/07/07 05:40:13;;;;;;;4.03;3.33;;;16.90;99.90;;;;;;5031739;28;20204;-67
2022/07/07 05:42:40;;;;;;;7.40;3.63;;;16.90;99.90;;;;;;5030531;28;20332;-68
2022/07/07 05:45:08;;;;;;;4.13;3.60;;;16.90;99.90;;;;;;5031988;28;20662;-69
2022/07/07 05:47:35;;;;;;;3.60;3.30;;;16.90;99.90;;;;;;5032034;28;20249;-69
2022/07/07 05:50:02;;;;;;;4.37;3.97;;;16.90;99.90;;;;;;5050935;28;20213;-67
2022/07/07 05:52:29;;;;;;;6.07;3.87;;;16.90;99.90;;;;;;5051501;28;20297;-68
2022/07/07 05:54:56;;;;;;;6.83;3.87;;;16.90;99.90;;;;;;5051556;28;20311;-69
2022/07/07 05:57:25;;;;;;;5.60;3.60;;;17.00;99.90;;;;;;5039934;28;20291;-67
2022/07/07 05:59:52;;;;;;;3.80;3.00;;;17.00;99.90;;;;;;5031127;28;20223;-70
2022/07/07 06:02:19;;;;;;;3.50;2.90;;;17.00;99.90;;;;;;5031321;28;20639;-66
2022/07/07 06:04:46;;;;;;;3.77;2.93;;;17.10;99.90;;;;;;5037813;28;20284;-66
2022/07/07 06:07:13;;;;;;;4.43;2.90;;;17.20;99.90;;;;;;5054714;28;20296;-67
2022/07/07 06:09:40;;;;;;;2.80;2.60;;;17.30;99.90;;;;;;5055035;28;20290;-68
2022/07/07 06:12:07;;;;;;;3.20;2.40;;;17.30;99.90;;;;;;5054860;28;20316;-67
2022/07/07 06:14:36;;;;;;;3.10;2.80;;;17.40;99.90;;;;;;5048902;28;20293;-67
2022/07/07 06:17:03;;;;;;;5.37;2.50;;;17.50;99.90;;;;;;5055169;28;20208;-69
2022/07/07 06:19:30;;;;;;;5.83;2.90;;;17.60;99.90;;;;;;5053912;28;20274;-68
2022/07/07 06:21:57;;;;;;;4.23;2.67;;;17.70;99.90;;;;;;5054860;28;20210;-67
2022/07/07 06:24:24;;;;;;;3.17;2.53;;;17.80;99.90;;;;;;5052657;28;20692;-67
2022/07/07 06:26:50;;;;;;;3.23;2.57;;;17.90;99.90;;;;;;5054206;28;20296;-67
2022/07/07 06:29:17;;;;;;;4.57;2.77;;;17.90;99.90;;;;;;5054289;28;20316;-69
2022/07/07 06:31:46;;;;;;;3.33;2.50;;;17.90;99.90;;;;;;5054379;28;20208;-68
2022/07/07 06:34:13;;;;;;;2.80;2.50;;;17.90;99.90;;;;;;5052848;28;20300;-69
2022/07/07 06:36:40;;;;;;;2.77;2.50;;;18.00;99.90;;;;;;5054377;28;20237;-71
2022/07/07 06:39:07;;;;;;;3.67;2.50;;;18.00;99.90;;;;;;5054552;28;20289;-68
2022/07/07 06:41:36;;;;;;;3.67;2.73;;;18.00;99.90;;;;;;5048319;28;20311;-68
2022/07/07 06:44:03;;;;;;;4.77;2.43;;;18.20;99.90;;;;;;5043999;28;20323;-67
2022/07/07 06:46:30;;;;;;;4.33;2.53;;;18.20;99.90;;;;;;5038688;28;20241;-67
2022/07/07 06:48:59;;;;;;;2.80;2.60;;;18.20;99.90;;;;;;5053067;28;20294;-68
2022/07/07 06:51:25;;;;;;;2.90;2.60;;;18.30;99.90;;;;;;5049031;28;20225;-68
2022/07/07 06:53:52;;;;;;;4.20;2.80;;;18.40;99.90;;;;;;5048885;28;20209;-68
2022/07/07 06:56:19;;;;;;;3.30;2.77;;;18.40;99.90;;;;;;5045670;28;20257;-68
2022/07/07 06:58:46;;;;;;;5.37;2.60;;;18.50;99.90;;;;;;5037233;28;20308;-67
2022/07/07 07:01:13;;;;;;;4.77;2.73;;;18.70;99.90;;;;;;5037553;28;20285;-67
2022/07/07 07:03:40;;;;;;;4.07;2.70;;;18.80;99.90;;;;;;5053432;28;20216;-70
2022/07/07 07:06:09;;;;;;;3.60;2.60;;;18.90;99.90;;;;;;5054007;28;20205;-68
2022/07/07 07:08:36;;;;;;;3.07;2.70;;;18.90;99.90;;;;;;5047635;28;20693;-68
2022/07/07 07:11:04;;;;;;;3.20;2.40;;;19.00;99.90;;;;;;5033749;28;20203;-68
2022/07/07 07:13:31;;;;;;;3.70;2.90;;;19.00;99.90;;;;;;5037024;28;20208;-69
2022/07/07 07:15:58;;;;;;;4.67;2.83;;;19.00;99.90;;;;;;5036670;28;20202;-68
2022/07/07 07:18:25;;;;;;;2.63;2.43;;;19.10;99.90;;;;;;5056384;28;20210;-67
2022/07/07 07:20:52;;;;;;;3.17;2.50;;;19.20;99.90;;;;;;5044270;28;20214;-69
2022/07/07 07:23:20;;;;;;;3.97;2.40;;;19.30;99.90;;;;;;5034476;28;20209;-70
2022/07/07 07:25:47;;;;;;;3.40;2.73;;;19.40;99.90;;;;;;5037493;28;20295;-67
2022/07/07 07:28:14;;;;;;;2.40;2.13;;;19.50;99.90;;;;;;5049687;28;20217;-68
2022/07/07 07:30:41;;;;;;;4.37;2.40;;;19.70;99.90;;;;;;5068790;28;20226;-68
2022/07/07 07:33:08;;;;;;;4.60;2.27;;;19.80;99.90;;;;;;5058099;28;20237;-65
2022/07/07 07:35:34;;;;;;;5.70;2.50;;;19.90;99.90;;;;;;5058787;28;20197;-66
2022/07/07 07:38:01;;;;;;;3.00;2.40;;;19.90;99.90;;;;;;5067422;28;20665;-66
2022/07/07 07:40:30;;;;;;;3.63;2.30;;;20.00;99.90;;;;;;5033095;28;20205;-67
2022/07/07 07:42:57;;;;;;;4.63;2.50;;;20.20;99.90;;;;;;5033399;28;20260;-67
2022/07/07 07:45:24;;;;;;;4.53;2.43;;;20.10;99.90;;;;;;5033657;28;20212;-66
2022/07/07 07:47:51;;;;;;;7.40;2.77;;;20.10;99.90;;;;;;5033606;28;20296;-66
2022/07/07 07:50:19;;;;;;;3.83;2.67;;;20.20;99.90;;;;;;5033411;28;20241;-69
2022/07/07 07:52:46;;;;;;;3.30;2.30;;;20.10;99.90;;;;;;5033409;28;20300;-69
2022/07/07 07:55:16;;;;;;;5.27;2.77;;;20.00;99.90;;;;;;5035899;28;20210;-73
2022/07/07 07:57:44;;;;;;;4.80;2.50;;;19.90;99.90;;;;;;5046162;28;20202;-69
2022/07/07 08:00:14;;;;;;;5.00;2.43;;;20.00;99.90;;;;;;5051800;28;20627;-69
2022/07/07 08:02:41;;;;;;;1.97;1.83;;;20.20;99.90;;;;;;5031546;28;20215;-66
2022/07/07 08:05:10;;;;;;;2.30;2.10;;;20.40;99.90;;;;;;5042733;28;20618;-67
2022/07/07 08:07:37;;;;;;;2.70;2.37;;;20.30;99.90;;;;;;5066008;28;20202;-67
2022/07/07 08:10:05;;;;;;;3.23;2.30;;;20.20;99.90;;;;;;5052916;28;20582;-68
2022/07/07 08:12:34;;;;;;;4.33;3.17;;;20.20;99.90;;;;;;5057498;28;20608;-71
2022/07/07 08:15:02;;;;;;;2.97;2.10;;;20.40;99.90;;;;;;5052217;28;20205;-68
2022/07/07 08:17:29;;;;;;;2.50;2.30;;;20.40;99.90;;;;;;5046133;28;20208;-69
2022/07/07 08:19:56;;;;;;;2.50;2.00;;;20.30;99.90;;;;;;5051092;28;20198;-67
2022/07/07 08:22:23;;;;;;;5.53;1.90;;;20.20;99.90;;;;;;5051632;28;20623;-68
2022/07/07 08:24:50;;;;;;;3.50;2.07;;;20.30;99.90;;;;;;5052495;28;20201;-68
2022/07/07 08:27:17;;;;;;;2.80;2.10;;;20.30;99.90;;;;;;5056346;28;20438;-68
2022/07/07 08:29:44;;;;;;;3.40;2.10;;;20.30;99.90;;;;;;5071757;28;20232;-68
2022/07/07 08:32:13;;;;;;;2.30;2.10;;;20.50;99.90;;;;;;5072234;28;20200;-72
2022/07/07 08:34:40;;;;;;;3.30;2.30;;;20.60;99.90;;;;;;5042189;28;20376;-66
2022/07/07 08:37:07;;;;;;;2.60;2.40;;;20.70;99.90;;;;;;5043599;28;20207;-68
2022/07/07 08:39:34;;;;;;;3.87;2.40;;;20.70;99.90;;;;;;5051358;28;20197;-66
2022/07/07 08:42:01;;;;;;;4.77;2.33;;;20.60;99.90;;;;;;5051753;28;20213;-68
2022/07/07 08:44:28;;;;;;;2.67;2.10;;;20.70;99.90;;;;;;5051943;28;20197;-67
2022/07/07 08:46:55;;;;;;;4.13;2.30;;;20.80;99.90;;;;;;5052228;28;20259;-69
2022/07/07 08:49:24;;;;;;;4.27;2.00;;;20.90;99.90;;;;;;5052156;28;20335;-69
2022/07/07 08:51:51;;;;;;;5.93;2.20;;;21.00;99.90;;;;;;5036446;28;20293;-69
2022/07/07 08:54:18;;;;;;;4.47;2.20;;;21.10;99.90;;;;;;5032171;28;20237;-69
2022/07/07 08:56:45;;;;;;;4.73;2.20;;;21.20;99.90;;;;;;5041806;28;20208;-66
2022/07/07 08:59:14;;;;;;;3.90;2.23;;;21.30;99.90;;;;;;5052000;28;20205;-66
2022/07/07 09:01:42;;;;;;;3.47;2.20;;;21.40;99.90;;;;;;5052221;28;20209;-70
2022/07/07 09:04:09;;;;;;;3.03;2.10;;;21.50;99.90;;;;;;5051850;28;20209;-69
2022/07/07 09:06:37;;;;;;;3.27;1.90;;;21.40;99.90;;;;;;5052012;28;20719;-68
2022/07/07 09:09:05;;;;;;;4.03;1.93;;;21.50;99.90;;;;;;5033566;28;20284;-68
2022/07/07 09:11:34;;;;;;;2.70;2.13;;;21.50;99.90;;;;;;5031647;28;20252;-69
2022/07/07 09:14:10;;;;;;;3.17;2.00;;;21.60;99.90;;;;;;5042638;28;20343;-67
2022/07/07 09:16:37;;;;;;;2.03;1.80;;;21.60;99.90;;;;;;5046417;28;20197;-70
2022/07/07 09:19:09;;;;;;;3.50;2.00;;;21.70;99.90;;;;;;5039174;28;20206;-68
2022/07/07 09:21:37;;;;;;;2.63;1.80;;;21.70;99.90;;;;;;5038381;28;20198;-70
2022/07/07 09:24:06;;;;;;;2.53;1.70;;;21.60;99.90;;;;;;5050281;28;20577;-67
2022/07/07 09:26:37;;;;;;;3.33;1.80;;;21.60;99.90;;;;;;5041837;28;20198;-67
2022/07/07 09:29:05;;;;;;;2.90;1.97;;;21.60;99.90;;;;;;5051686;28;20592;-69
2022/07/07 09:31:51;;;;;;;3.10;1.50;;;21.60;99.90;;;;;;5051500;28;20205;-68
2022/07/07 09:34:19;;;;;;;2.70;1.80;;;21.70;99.90;;;;;;5044127;28;20238;-70
2022/07/07 09:39:43;;;;;;;2.00;1.80;;;21.60;99.90;;;;;;5068629;28;20582;-67
2022/07/07 09:42:23;;;;;;;2.90;1.60;;;21.60;99.90;;;;;;5054338;28;20206;-70
2022/07/07 09:44:53;;;;;;;2.30;1.50;;;21.80;99.90;;;;;;5055548;28;20208;-68
2022/07/07 09:47:21;;;;;;;5.30;1.70;;;21.90;99.90;;;;;;5055152;28;20292;-68
2022/07/07 09:50:05;;;;;;;1.60;1.50;;;22.00;99.90;;;;;;5055348;28;20316;-68
2022/07/07 09:52:36;;;;;;;1.90;1.70;;;22.00;99.90;;;;;;5054992;28;20189;-68
2022/07/07 09:55:06;;;;;;;3.33;1.50;;;22.00;99.90;;;;;;5055392;28;20694;-71
2022/07/07 09:57:33;;;;;;;3.03;1.80;;;22.00;99.90;;;;;;5054750;28;20205;-70
2022/07/07 09:59:59;;;;;;;2.03;1.50;;;22.10;99.90;;;;;;5045412;28;20302;-70
2022/07/07 10:02:29;;;;;;;2.10;1.50;;;22.20;99.90;;;;;;5055278;28;20235;-69
2022/07/07 10:04:58;;;;;;;2.33;1.60;;;22.20;99.90;;;;;;5055061;28;20655;-69
2022/07/07 10:07:27;;;;;;;2.23;1.53;;;22.20;99.90;;;;;;5055187;28;20251;-69
2022/07/07 10:09:56;;;;;;;1.70;1.60;;;22.20;99.90;;;;;;5054820;28;20258;-70
2022/07/07 10:12:25;;;;;;;2.13;1.60;;;22.20;99.90;;;;;;5054684;28;20284;-68
2022/07/07 10:15:00;;;;;;;3.13;1.70;;;22.30;99.90;;;;;;5054712;28;20300;-68
2022/07/07 10:17:28;;;;;;;1.90;1.70;;;22.20;99.90;;;;;;5035168;28;20190;-69
2022/07/07 10:19:55;;;;;;;1.53;1.43;;;22.30;99.90;;;;;;5035071;28;20647;-69
2022/07/07 10:22:27;;;;;;;2.53;1.80;;;22.30;99.90;;;;;;5035302;28;20636;-68
2022/07/07 10:24:56;;;;;;;3.50;1.60;;;22.30;99.90;;;;;;5039904;28;20227;-68
2022/07/07 10:27:24;;;;;;;3.20;1.60;;;22.40;99.90;;;;;;5047307;28;20288;-69
2022/07/07 10:29:53;;;;;;;1.87;1.57;;;22.50;99.90;;;;;;5054843;28;20222;-66
2022/07/07 10:32:30;;;;;;;4.80;1.70;;;22.50;99.90;;;;;;5053601;28;20210;-67
2022/07/07 10:34:58;;;;;;;1.70;1.60;;;22.50;99.90;;;;;;5032490;28;20328;-71
2022/07/07 10:37:27;;;;;;;1.73;1.57;;;22.50;99.90;;;;;;5042014;28;20214;-70
2022/07/07 10:39:56;;;;;;;1.70;1.60;;;22.50;99.90;;;;;;5035686;28;20212;-69
2022/07/07 10:42:48;;;;;;;2.40;1.70;;;22.50;99.90;;;;;;5034401;28;20202;-69
2022/07/07 10:45:15;;;;;;;1.70;1.60;;;22.50;99.90;;;;;;5047886;28;20213;-68
2022/07/07 10:47:42;;;;;;;2.57;1.70;;;22.60;99.90;;;;;;5048080;28;20228;-69
2022/07/07 10:50:29;;;;;;;2.20;1.60;;;22.80;99.90;;;;;;5046763;28;20219;-68
2022/07/07 10:52:57;;;;;;;2.10;1.50;;;22.90;99.90;;;;;;5053888;28;20729;-69
2022/07/07 10:55:53;;;;;;;3.13;1.47;;;22.90;99.90;;;;;;5053886;28;20205;-67
2022/07/07 10:58:55;;;;;;;1.60;1.50;;;22.90;99.90;;;;;;5041878;28;20658;-67
2022/07/07 11:01:22;;;;;;;3.93;1.90;;;23.00;99.90;;;;;;5054176;28;20199;-71
2022/07/07 11:03:49;;;;;;;2.73;1.53;;;23.10;99.90;;;;;;5053704;28;20291;-68
2022/07/07 11:06:16;;;;;;;3.13;1.40;;;23.20;99.90;;;;;;5053184;28;20220;-68
2022/07/07 11:08:54;;;;;;;2.27;1.60;;;23.30;99.90;;;;;;5054002;28;20750;-68
2022/07/07 11:11:22;;;;;;;11.43;2.07;;;23.30;99.90;;;;;;5053764;28;20196;-68
2022/07/07 11:14:04;;;;;;;1.40;1.30;;;23.30;99.90;;;;;;5053428;28;20295;-68
2022/07/07 11:16:31;;;;;;;3.47;1.60;;;23.20;99.90;;;;;;5047534;28;20270;-68
2022/07/07 11:19:00;;;;;;;2.53;1.70;;;23.30;99.90;;;;;;5036679;28;20222;-68
2022/07/07 11:21:39;;;;;;;2.73;1.60;;;23.40;99.90;;;;;;5036961;28;20208;-68
2022/07/07 11:24:16;;;;;;;2.63;1.40;;;23.50;99.90;;;;;;5036842;28;20209;-68
2022/07/07 11:26:54;;;;;;;1.60;1.50;;;23.40;99.90;;;;;;5035157;28;20734;-68
2022/07/07 11:29:21;;;;;;;2.00;1.40;;;23.40;99.90;;;;;;5041382;28;20616;-69
2022/07/07 11:31:48;;;;;;;1.93;1.50;;;23.40;99.90;;;;;;5035601;28;20196;-66
2022/07/07 11:34:15;;;;;;;3.53;1.60;;;23.30;99.90;;;;;;5041351;28;20229;-69
2022/07/07 11:36:42;;;;;;;2.17;1.50;;;23.30;99.90;;;;;;5053127;28;20261;-67
2022/07/07 11:39:09;;;;;;;2.73;1.50;;;23.30;99.90;;;;;;5052823;28;20284;-69
2022/07/07 11:41:40;;;;;;;1.73;1.40;;;23.40;99.90;;;;;;5043685;28;20247;-68
2022/07/07 11:44:18;;;;;;;1.40;1.30;;;23.50;99.90;;;;;;5052981;28;20211;-69
2022/07/07 11:46:47;;;;;;;1.53;1.30;;;23.50;99.90;;;;;;5052473;28;20287;-71
2022/07/07 11:49:15;;;;;;;1.83;1.57;;;23.50;99.90;;;;;;5053053;28;20228;-68
2022/07/07 11:51:44;;;;;;;1.60;1.50;;;23.60;99.90;;;;;;5052853;28;20208;-68
2022/07/07 11:54:12;;;;;;;3.07;2.13;;;23.50;99.90;;;;;;5052933;28;20203;-70
2022/07/07 11:56:39;;;;;;;1.77;1.67;;;23.40;99.90;;;;;;5052815;28;20300;-69
2022/07/07 11:59:08;;;;;;;1.93;1.50;;;23.50;99.90;;;;;;5034695;28;20217;-71
2022/07/07 12:01:37;;;;;;;2.57;1.90;;;23.50;99.90;;;;;;5037952;28;20219;-66
2022/07/07 12:04:14;;;;;;;3.00;1.90;;;23.50;99.90;;;;;;5051366;28;20208;-67
2022/07/07 12:06:41;;;;;;;1.90;1.57;;;23.70;99.90;;;;;;5049797;28;20214;-68
2022/07/07 12:09:08;;;;;;;2.57;1.43;;;23.80;99.90;;;;;;5043473;28;20651;-67
2022/07/07 12:11:38;;;;;;;2.50;1.40;;;23.90;99.90;;;;;;5036035;28;20202;-67
2022/07/07 12:14:05;;;;;;;2.17;1.67;;;24.00;99.90;;;;;;5039253;28;20226;-68
2022/07/07 12:16:43;;;;;;;3.33;1.67;;;24.10;99.90;;;;;;5045872;28;20579;-69
2022/07/07 12:19:10;;;;;;;1.47;1.37;;;24.20;99.90;;;;;;5061845;28;20204;-70
2022/07/07 12:21:43;;;;;;;3.80;1.70;;;24.20;99.90;;;;;;5052522;28;20302;-69
2022/07/07 12:24:13;;;;;;;2.00;1.60;;;24.20;99.90;;;;;;5052931;28;20202;-69
2022/07/07 12:26:47;;;;;;;2.17;1.60;;;24.30;99.90;;;;;;5049115;28;20216;-68
2022/07/07 12:29:14;;;;;;;2.53;1.70;;;24.30;99.90;;;;;;5040582;28;20553;-68
2022/07/07 12:31:42;;;;;;;2.67;1.40;;;24.40;99.90;;;;;;5045729;28;20658;-70
2022/07/07 12:34:14;;;;;;;3.10;1.53;;;24.40;99.90;;;;;;5047223;28;20242;-68
2022/07/07 12:36:42;;;;;;;1.80;1.40;;;24.30;99.90;;;;;;5051864;28;20208;-69
2022/07/07 12:39:09;;;;;;;2.87;1.50;;;24.30;99.90;;;;;;5052165;28;20306;-70
2022/07/07 12:41:38;;;;;;;2.30;1.30;;;24.20;99.90;;;;;;5034160;28;20206;-68
2022/07/07 12:44:16;;;;;;;3.70;1.47;;;24.10;99.90;;;;;;5032584;28;20648;-69
2022/07/07 12:46:45;;;;;;;1.90;1.37;;;24.00;99.90;;;;;;5036080;28;20679;-71
2022/07/07 12:49:13;;;;;;;6.13;2.00;;;23.80;99.90;;;;;;5042758;28;20651;-69
2022/07/07 12:51:42;;;;;;;2.63;1.50;;;23.80;99.90;;;;;;5031980;28;20203;-70
2022/07/07 12:54:20;;;;;;;1.60;1.50;;;23.80;99.90;;;;;;5031076;28;20206;-69
2022/07/07 12:56:47;;;;;;;2.73;1.50;;;23.90;99.90;;;;;;5031801;28;20212;-70